Time;durP1;ratioP1;P1;durP2;ratioP2;P2;SDS_P1;SDS_P2;PMS_P1;PMS_P2;Temp;Humidity;BMP_temperature;BMP_pressure;BME280_temperature;BME280_humidity;BME280_pressure;Samples;Min_cycle;Max_cycle;Signal;HPM_P1;HPM_P2
2024/03/27 00:02:24;;;;;;;1.67;0.87;;;13.50;98.20;;;;;;5030834;28;20297;-77
2024/03/27 00:04:50;;;;;;;2.17;1.33;;;13.50;98.30;;;;;;5030487;28;20205;-77
2024/03/27 00:07:16;;;;;;;3.00;1.42;;;13.50;98.40;;;;;;5032166;28;20654;-76
2024/03/27 00:09:42;;;;;;;2.30;1.30;;;13.50;98.40;;;;;;5032778;28;20173;-77
2024/03/27 00:12:08;;;;;;;2.70;1.20;;;13.60;98.50;;;;;;5035103;28;20646;-76
2024/03/27 00:14:33;;;;;;;5.40;1.37;;;13.60;98.40;;;;;;5052533;28;20738;-76
2024/03/27 00:17:00;;;;;;;2.50;1.40;;;13.50;98.40;;;;;;5047376;28;20584;-76
2024/03/27 00:19:26;;;;;;;2.17;1.27;;;13.50;98.40;;;;;;5046828;28;20540;-76
2024/03/27 00:21:52;;;;;;;4.13;1.40;;;13.50;98.20;;;;;;5031834;28;20288;-76
2024/03/27 00:24:17;;;;;;;3.60;2.00;;;13.50;98.40;;;;;;5031808;28;20239;-76
2024/03/27 00:26:43;;;;;;;3.00;1.40;;;13.50;98.30;;;;;;5031295;28;20577;-76
2024/03/27 00:29:09;;;;;;;4.00;1.60;;;13.50;98.40;;;;;;5050334;28;20188;-77
2024/03/27 00:31:34;;;;;;;5.30;1.43;;;13.50;97.80;;;;;;5050339;28;20201;-77
2024/03/27 00:34:00;;;;;;;2.23;1.20;;;13.50;97.90;;;;;;5051512;28;20539;-77
2024/03/27 00:36:26;;;;;;;2.27;1.23;;;13.50;97.90;;;;;;5051361;28;20181;-75
2024/03/27 00:38:51;;;;;;;3.30;1.30;;;13.40;97.90;;;;;;5051643;28;20169;-76
2024/03/27 00:41:17;;;;;;;2.17;1.37;;;13.40;98.00;;;;;;5051514;28;20169;-77
2024/03/27 00:43:43;;;;;;;2.60;1.30;;;13.50;97.90;;;;;;5051596;28;20641;-75
2024/03/27 00:46:08;;;;;;;2.63;1.30;;;13.50;98.00;;;;;;5050067;28;20184;-75
2024/03/27 00:48:35;;;;;;;3.97;1.90;;;13.40;97.60;;;;;;5052633;28;20184;-75
2024/03/27 00:51:01;;;;;;;4.28;1.50;;;13.50;97.90;;;;;;5051526;28;20222;-75
2024/03/27 00:53:27;;;;;;;2.27;1.30;;;13.50;97.40;;;;;;5049924;28;20223;-75
2024/03/27 00:56:03;;;;;;;2.25;1.10;;;13.40;97.70;;;;;;5051161;28;20732;-75
2024/03/27 00:58:29;;;;;;;2.53;1.40;;;13.40;97.00;;;;;;5050049;28;20610;-73
2024/03/27 01:00:56;;;;;;;2.60;1.30;;;13.40;97.90;;;;;;5029022;28;20632;-74
2024/03/27 01:03:24;;;;;;;2.10;1.42;;;13.40;97.80;;;;;;5035655;28;20655;-75
2024/03/27 01:05:50;;;;;;;2.60;1.50;;;13.50;97.80;;;;;;5050854;28;20176;-75
2024/03/27 01:08:15;;;;;;;4.00;1.52;;;13.40;97.80;;;;;;5037745;28;20595;-74
2024/03/27 01:10:41;;;;;;;3.53;1.87;;;13.40;97.60;;;;;;5029927;28;20260;-75
2024/03/27 01:13:09;;;;;;;3.40;1.23;;;13.40;97.60;;;;;;5029665;28;20210;-75
2024/03/27 01:15:36;;;;;;;3.22;1.70;;;13.40;97.80;;;;;;5029486;28;20643;-75
2024/03/27 01:18:03;;;;;;;4.03;1.55;;;13.40;97.60;;;;;;5029708;28;20252;-75
2024/03/27 01:20:30;;;;;;;3.05;1.60;;;13.30;97.00;;;;;;5029760;28;20169;-75
2024/03/27 01:22:56;;;;;;;2.72;1.42;;;13.30;97.40;;;;;;5030881;28;20205;-75
2024/03/27 01:25:22;;;;;;;3.22;1.73;;;13.30;97.40;;;;;;5011783;28;20177;-75
2024/03/27 01:27:48;;;;;;;2.65;1.17;;;13.30;97.40;;;;;;5027470;28;20186;-75
2024/03/27 01:30:14;;;;;;;4.43;1.43;;;13.30;97.60;;;;;;5036244;28;20517;-75
2024/03/27 01:32:40;;;;;;;3.13;1.30;;;13.30;97.50;;;;;;5047065;28;21015;-75
2024/03/27 01:35:06;;;;;;;5.70;2.00;;;13.20;97.60;;;;;;5037450;28;20584;-75
2024/03/27 01:37:32;;;;;;;3.03;1.83;;;13.20;97.40;;;;;;5037085;28;20177;-74
2024/03/27 01:39:58;;;;;;;5.13;1.80;;;13.20;97.50;;;;;;5037687;28;20191;-75
2024/03/27 01:42:24;;;;;;;3.00;1.40;;;13.20;97.70;;;;;;5038757;28;20631;-74
2024/03/27 01:44:50;;;;;;;3.30;1.40;;;13.20;97.50;;;;;;5034420;28;20192;-74
2024/03/27 01:47:16;;;;;;;2.60;1.27;;;13.20;97.70;;;;;;5031484;28;20181;-75
2024/03/27 01:49:43;;;;;;;3.30;1.53;;;13.20;97.90;;;;;;5030564;28;20616;-74
2024/03/27 01:52:11;;;;;;;4.72;1.92;;;13.20;97.70;;;;;;5046414;28;20655;-74
2024/03/27 01:54:38;;;;;;;2.65;1.55;;;13.10;97.80;;;;;;5030191;28;20209;-75
2024/03/27 01:57:04;;;;;;;2.67;1.50;;;13.10;97.70;;;;;;5033903;28;20177;-75
2024/03/27 01:59:32;;;;;;;8.48;1.45;;;13.10;97.90;;;;;;5051166;28;20176;-75
2024/03/27 02:01:58;;;;;;;2.90;1.50;;;13.10;97.80;;;;;;5038568;28;20217;-75
2024/03/27 02:04:25;;;;;;;2.40;1.10;;;13.10;97.90;;;;;;5029567;28;20597;-74
2024/03/27 02:06:53;;;;;;;2.10;1.10;;;13.10;97.80;;;;;;5041801;28;20288;-75
2024/03/27 02:09:19;;;;;;;3.08;1.30;;;13.10;97.90;;;;;;5044132;28;20173;-75
2024/03/27 02:11:44;;;;;;;2.92;1.75;;;13.10;98.00;;;;;;5040395;28;20544;-75
2024/03/27 02:14:14;;;;;;;3.00;1.30;;;13.00;98.00;;;;;;5042674;28;20204;-75
2024/03/27 02:16:40;;;;;;;2.45;1.15;;;13.00;97.70;;;;;;5042154;28;20185;-75
2024/03/27 02:19:06;;;;;;;4.33;1.30;;;13.00;97.90;;;;;;5029094;28;20165;-74
2024/03/27 02:21:32;;;;;;;2.85;1.10;;;13.00;97.90;;;;;;5030301;28;20560;-75
2024/03/27 02:24:09;;;;;;;3.25;1.70;;;13.00;98.00;;;;;;5030360;28;20189;-74
2024/03/27 02:26:35;;;;;;;3.17;1.75;;;12.90;97.40;;;;;;5030341;28;20208;-75
2024/03/27 02:29:01;;;;;;;2.67;1.40;;;12.90;97.70;;;;;;5029200;28;20283;-74
2024/03/27 02:31:28;;;;;;;3.08;1.40;;;12.90;97.90;;;;;;5028879;28;20194;-75
2024/03/27 02:33:53;;;;;;;1.88;1.10;;;12.90;98.00;;;;;;5048452;28;20267;-75
2024/03/27 02:36:19;;;;;;;2.63;1.50;;;12.90;97.50;;;;;;5067735;28;20176;-75
2024/03/27 02:38:45;;;;;;;3.90;1.90;;;12.90;97.70;;;;;;5037446;28;20181;-75
2024/03/27 02:41:11;;;;;;;5.63;1.80;;;12.90;97.80;;;;;;5034195;28;20588;-75
2024/03/27 02:43:37;;;;;;;3.23;1.33;;;12.80;97.80;;;;;;5042297;28;20581;-75
2024/03/27 02:46:02;;;;;;;5.13;1.50;;;12.80;97.90;;;;;;5054061;28;20826;-75
2024/03/27 02:48:28;;;;;;;3.13;1.53;;;12.80;98.10;;;;;;5054376;28;20185;-75
2024/03/27 02:50:54;;;;;;;4.10;1.47;;;12.80;98.00;;;;;;5051310;28;20690;-75
2024/03/27 02:53:19;;;;;;;3.20;1.60;;;12.80;98.00;;;;;;5034012;28;20809;-75
2024/03/27 02:55:45;;;;;;;4.30;1.90;;;12.80;98.30;;;;;;5032180;28;20170;-75
2024/03/27 02:58:11;;;;;;;3.47;1.80;;;12.80;98.10;;;;;;5040676;28;20647;-75
2024/03/27 03:00:36;;;;;;;3.60;1.10;;;12.80;98.10;;;;;;5032358;28;20873;-74
2024/03/27 03:03:02;;;;;;;4.23;1.97;;;12.80;98.20;;;;;;5036335;28;20292;-75
2024/03/27 03:05:29;;;;;;;3.60;1.90;;;12.80;98.20;;;;;;5052149;28;20185;-74
2024/03/27 03:07:54;;;;;;;5.00;1.75;;;12.80;98.50;;;;;;5051921;28;20598;-74
2024/03/27 03:10:20;;;;;;;1.83;1.10;;;12.80;98.40;;;;;;5038769;28;20170;-75
2024/03/27 03:12:46;;;;;;;4.30;1.40;;;12.80;98.40;;;;;;5032999;28;20206;-74
2024/03/27 03:15:11;;;;;;;3.00;1.37;;;12.80;98.40;;;;;;5045005;28;20350;-76
2024/03/27 03:17:37;;;;;;;3.07;1.50;;;12.80;98.50;;;;;;5053288;28;20193;-75
2024/03/27 03:20:04;;;;;;;2.67;1.43;;;12.80;98.60;;;;;;5051870;28;20179;-75
2024/03/27 03:22:30;;;;;;;3.67;1.70;;;12.80;98.70;;;;;;5051452;28;20211;-74
2024/03/27 03:24:56;;;;;;;2.90;1.33;;;12.80;98.80;;;;;;5052601;28;20184;-75
2024/03/27 03:27:22;;;;;;;3.03;1.97;;;12.80;98.80;;;;;;5043303;28;20583;-74
2024/03/27 03:29:47;;;;;;;1.90;1.10;;;12.80;98.80;;;;;;5043962;28;20234;-74
2024/03/27 03:32:13;;;;;;;3.00;1.67;;;12.80;98.90;;;;;;5036424;28;20726;-75
2024/03/27 03:34:39;;;;;;;3.40;1.83;;;12.80;99.00;;;;;;5052774;28;20205;-74
2024/03/27 03:37:05;;;;;;;2.83;1.65;;;12.80;98.80;;;;;;5052566;28;20177;-74
2024/03/27 03:39:30;;;;;;;2.27;1.20;;;12.80;98.80;;;;;;5052633;28;20230;-76
2024/03/27 03:41:56;;;;;;;4.33;1.80;;;12.70;98.80;;;;;;5042883;28;20197;-75
2024/03/27 03:44:22;;;;;;;3.73;1.53;;;12.70;98.80;;;;;;5032454;28;20647;-75
2024/03/27 03:46:48;;;;;;;3.90;2.17;;;12.70;99.00;;;;;;5031258;28;20181;-74
2024/03/27 03:49:13;;;;;;;4.00;2.10;;;12.70;99.00;;;;;;5032505;28;20584;-75
2024/03/27 03:51:40;;;;;;;2.73;1.60;;;12.70;99.20;;;;;;5031308;28;20271;-75
2024/03/27 03:54:07;;;;;;;3.10;1.95;;;12.70;99.20;;;;;;5030962;28;20209;-75
2024/03/27 03:56:33;;;;;;;2.95;1.80;;;12.70;99.30;;;;;;5031102;28;20170;-75
2024/03/27 03:58:58;;;;;;;2.83;1.63;;;12.60;99.20;;;;;;5032317;28;20535;-75
2024/03/27 04:01:24;;;;;;;2.73;1.90;;;12.60;99.30;;;;;;5030943;28;20850;-74
2024/03/27 04:03:50;;;;;;;3.57;1.70;;;12.60;99.40;;;;;;5032349;28;20188;-74
2024/03/27 04:06:15;;;;;;;4.27;1.67;;;12.60;99.50;;;;;;5034477;28;20189;-74
2024/03/27 04:08:41;;;;;;;3.57;1.40;;;12.60;99.60;;;;;;5052065;28;20258;-75
2024/03/27 04:11:07;;;;;;;5.53;2.20;;;12.60;99.60;;;;;;5033473;28;20666;-75
2024/03/27 04:13:33;;;;;;;2.42;1.92;;;12.60;99.50;;;;;;5038186;28;20208;-75
2024/03/27 04:16:01;;;;;;;4.27;1.93;;;12.70;99.60;;;;;;5040510;28;20260;-75
2024/03/27 04:18:27;;;;;;;4.45;2.17;;;12.70;99.80;;;;;;5044535;28;20220;-75
2024/03/27 04:20:53;;;;;;;2.22;1.40;;;12.70;99.70;;;;;;5051905;28;20196;-75
2024/03/27 04:23:19;;;;;;;6.60;1.93;;;12.70;99.90;;;;;;5047309;28;20216;-74
2024/03/27 04:25:48;;;;;;;4.20;1.80;;;12.70;99.90;;;;;;5031724;28;20236;-75
2024/03/27 04:28:15;;;;;;;3.28;1.55;;;12.70;99.70;;;;;;5023729;28;20581;-75
2024/03/27 04:30:41;;;;;;;2.92;1.70;;;12.70;99.80;;;;;;5031764;28;20185;-74
2024/03/27 04:33:09;;;;;;;3.38;2.25;;;12.70;99.80;;;;;;5013626;28;20251;-75
2024/03/27 04:35:35;;;;;;;2.85;1.65;;;12.60;99.70;;;;;;5030268;28;20236;-75
2024/03/27 04:38:01;;;;;;;2.80;1.27;;;12.70;99.90;;;;;;5030414;28;20843;-73
2024/03/27 04:40:26;;;;;;;4.60;1.90;;;12.70;99.90;;;;;;5036898;28;20171;-75
2024/03/27 04:42:52;;;;;;;4.87;2.33;;;12.60;99.90;;;;;;5051246;28;20560;-75
2024/03/27 04:45:18;;;;;;;3.50;1.40;;;12.60;99.90;;;;;;5039023;28;20576;-74
2024/03/27 04:47:44;;;;;;;2.77;1.47;;;12.70;99.90;;;;;;5031565;28;20611;-74
2024/03/27 04:50:10;;;;;;;2.87;1.73;;;12.70;99.90;;;;;;5031441;28;20607;-74
2024/03/27 04:52:36;;;;;;;2.80;1.53;;;12.70;99.90;;;;;;5031474;28;20267;-75
2024/03/27 04:55:05;;;;;;;3.30;2.03;;;12.70;99.90;;;;;;5031085;28;20676;-75
2024/03/27 04:57:32;;;;;;;3.22;1.60;;;12.60;99.90;;;;;;5044092;28;20172;-75
2024/03/27 04:59:58;;;;;;;3.28;1.70;;;12.70;99.90;;;;;;5050942;28;20181;-74
2024/03/27 05:02:24;;;;;;;3.00;1.47;;;12.60;99.90;;;;;;5036940;28;20209;-75
2024/03/27 05:04:49;;;;;;;3.53;1.95;;;12.60;99.90;;;;;;5013204;28;20596;-75
2024/03/27 05:07:16;;;;;;;4.40;1.60;;;12.60;99.90;;;;;;5022024;28;20647;-75
2024/03/27 05:09:42;;;;;;;3.13;1.50;;;12.70;99.90;;;;;;5031321;28;20178;-75
2024/03/27 05:12:08;;;;;;;3.80;1.52;;;12.70;99.90;;;;;;5032181;28;20291;-75
2024/03/27 05:14:33;;;;;;;2.40;1.80;;;12.70;99.90;;;;;;5049687;28;20309;-75
2024/03/27 05:16:59;;;;;;;2.33;1.17;;;12.80;99.90;;;;;;5050773;28;20518;-74
2024/03/27 05:19:25;;;;;;;4.30;2.10;;;12.80;99.90;;;;;;5051011;28;20172;-74
2024/03/27 05:21:52;;;;;;;4.28;1.98;;;12.80;99.90;;;;;;5050737;28;20615;-75
2024/03/27 05:24:18;;;;;;;2.70;1.60;;;12.80;99.90;;;;;;5050749;28;20188;-74
2024/03/27 05:26:46;;;;;;;2.97;1.95;;;12.80;99.90;;;;;;5043666;28;20177;-75
2024/03/27 05:29:12;;;;;;;5.30;2.38;;;12.90;99.90;;;;;;5033687;28;20185;-74
2024/03/27 05:31:55;;;;;;;3.80;1.70;;;12.90;99.90;;;;;;5030878;28;20201;-75
2024/03/27 05:34:22;;;;;;;5.35;1.70;;;12.90;99.90;;;;;;5030496;28;20289;-75
2024/03/27 05:36:48;;;;;;;4.43;1.70;;;12.90;99.90;;;;;;5030670;28;20182;-75
2024/03/27 05:39:14;;;;;;;4.45;1.65;;;13.00;99.90;;;;;;5029453;28;20178;-75
2024/03/27 05:41:43;;;;;;;3.08;1.85;;;13.00;99.90;;;;;;5029451;28;20190;-74
2024/03/27 05:44:10;;;;;;;2.50;1.67;;;13.00;99.90;;;;;;5031744;28;20189;-74
2024/03/27 05:46:37;;;;;;;3.35;1.77;;;13.10;99.90;;;;;;5044266;28;20192;-75
2024/03/27 05:49:03;;;;;;;2.92;1.90;;;13.10;99.90;;;;;;5029782;28;20166;-75
2024/03/27 05:51:31;;;;;;;3.22;1.88;;;13.10;99.90;;;;;;5030558;28;20209;-75
2024/03/27 05:53:57;;;;;;;4.30;2.00;;;13.10;99.90;;;;;;5030561;28;20607;-75
2024/03/27 05:56:23;;;;;;;4.20;1.80;;;13.20;99.90;;;;;;5028999;28;20169;-75
2024/03/27 05:58:50;;;;;;;5.65;2.50;;;13.20;99.90;;;;;;5038350;28;20605;-75
2024/03/27 06:01:16;;;;;;;4.63;2.38;;;13.20;99.90;;;;;;5050154;28;20185;-75
2024/03/27 06:03:52;;;;;;;4.80;2.33;;;13.20;99.90;;;;;;5049180;28;20196;-74
2024/03/27 06:06:18;;;;;;;6.78;2.50;;;13.20;99.90;;;;;;5049952;28;20653;-74
2024/03/27 06:08:45;;;;;;;3.78;2.03;;;13.20;99.90;;;;;;5050569;28;20184;-73
2024/03/27 06:11:12;;;;;;;4.03;2.20;;;13.30;99.90;;;;;;5052668;28;20180;-75
2024/03/27 06:13:38;;;;;;;6.68;2.65;;;13.30;99.90;;;;;;5054133;28;20201;-75
2024/03/27 06:16:04;;;;;;;4.60;2.17;;;13.30;99.90;;;;;;5034818;28;20181;-75
2024/03/27 06:18:30;;;;;;;3.85;2.08;;;13.20;99.90;;;;;;5034548;28;20235;-75
2024/03/27 06:20:56;;;;;;;3.13;1.77;;;13.20;99.90;;;;;;5034900;28;20170;-75
2024/03/27 06:23:21;;;;;;;4.03;2.60;;;13.20;99.90;;;;;;5032950;28;20201;-76
2024/03/27 06:26:00;;;;;;;3.57;2.10;;;13.20;99.90;;;;;;5049548;28;20177;-75
2024/03/27 06:28:27;;;;;;;4.18;2.50;;;13.20;99.90;;;;;;5049867;28;20188;-76
2024/03/27 06:31:00;;;;;;;5.25;2.35;;;13.30;99.90;;;;;;5033034;28;20182;-75
2024/03/27 06:33:27;;;;;;;6.22;1.92;;;13.30;99.90;;;;;;5042354;28;20215;-76
2024/03/27 06:35:53;;;;;;;4.35;1.85;;;13.30;99.90;;;;;;5033974;28;20244;-76
2024/03/27 06:38:20;;;;;;;3.97;2.10;;;13.30;99.90;;;;;;5034557;28;20185;-75
2024/03/27 06:40:46;;;;;;;3.60;2.30;;;13.40;99.90;;;;;;5032415;28;21517;-76
2024/03/27 06:43:13;;;;;;;5.70;3.20;;;13.40;99.90;;;;;;5032693;28;20272;-75
2024/03/27 06:45:39;;;;;;;4.07;2.00;;;13.40;99.90;;;;;;5032241;28;20173;-75
2024/03/27 06:48:06;;;;;;;4.40;2.20;;;13.40;99.90;;;;;;5034490;28;20570;-74
2024/03/27 06:50:32;;;;;;;3.17;1.80;;;13.40;99.90;;;;;;5032328;28;20170;-75
2024/03/27 06:52:57;;;;;;;4.90;2.33;;;13.40;99.90;;;;;;5039951;28;20210;-75
2024/03/27 06:55:23;;;;;;;5.83;2.20;;;13.50;99.90;;;;;;5035067;28;20183;-75
2024/03/27 06:57:49;;;;;;;8.10;2.40;;;13.40;99.90;;;;;;5037014;28;20658;-75
2024/03/27 07:00:15;;;;;;;2.60;1.80;;;13.40;99.90;;;;;;5033346;28;20177;-75
2024/03/27 07:02:40;;;;;;;3.20;1.50;;;13.50;99.90;;;;;;5040500;28;20209;-75
2024/03/27 07:05:07;;;;;;;3.13;1.60;;;13.50;99.90;;;;;;5033227;28;20170;-75
2024/03/27 07:07:34;;;;;;;5.72;2.45;;;13.50;99.90;;;;;;5015657;28;20647;-74
2024/03/27 07:10:00;;;;;;;3.42;1.90;;;13.50;99.90;;;;;;5038328;28;20196;-75
2024/03/27 07:12:25;;;;;;;3.07;1.80;;;13.50;99.90;;;;;;5033228;28;20185;-74
2024/03/27 07:14:51;;;;;;;4.23;1.70;;;13.50;99.90;;;;;;5035281;28;20205;-74
2024/03/27 07:17:17;;;;;;;4.00;2.17;;;13.60;99.90;;;;;;5032020;28;20194;-75
2024/03/27 07:19:47;;;;;;;3.80;2.20;;;13.60;99.90;;;;;;5033230;28;20166;-74
2024/03/27 07:22:14;;;;;;;3.03;2.03;;;13.70;99.90;;;;;;5034727;28;20619;-74
2024/03/27 07:24:40;;;;;;;2.77;1.90;;;13.70;99.90;;;;;;5038598;28;20577;-75
2024/03/27 07:27:06;;;;;;;4.30;1.83;;;13.80;99.90;;;;;;5043038;28;20583;-75
2024/03/27 07:29:32;;;;;;;4.80;1.93;;;13.90;99.90;;;;;;5035601;28;21180;-75
2024/03/27 07:31:58;;;;;;;3.50;2.13;;;14.00;99.90;;;;;;5032663;28;20201;-75
2024/03/27 07:34:24;;;;;;;4.73;1.97;;;14.10;99.90;;;;;;5035289;28;20976;-74
2024/03/27 07:36:49;;;;;;;4.40;2.10;;;14.20;99.90;;;;;;5038842;28;20652;-74
2024/03/27 07:39:17;;;;;;;4.70;2.07;;;14.20;99.90;;;;;;5031121;28;20273;-74
2024/03/27 07:41:43;;;;;;;3.22;1.95;;;14.30;99.90;;;;;;5034552;28;20193;-75
2024/03/27 07:44:09;;;;;;;2.97;1.57;;;14.40;99.90;;;;;;5030939;28;20198;-75
2024/03/27 07:46:35;;;;;;;1.97;1.17;;;14.40;99.90;;;;;;5035639;28;20752;-74
2024/03/27 07:49:01;;;;;;;3.83;1.60;;;14.50;99.90;;;;;;5030940;28;20578;-74
2024/03/27 07:51:27;;;;;;;2.33;1.20;;;14.50;99.90;;;;;;5033127;28;21127;-74
2024/03/27 07:53:52;;;;;;;2.60;1.30;;;14.60;99.90;;;;;;5030861;28;20648;-74
2024/03/27 07:56:18;;;;;;;5.20;1.70;;;14.60;99.90;;;;;;5031065;28;20260;-74
2024/03/27 07:58:44;;;;;;;2.87;1.30;;;14.60;99.90;;;;;;5031851;28;20173;-74
2024/03/27 08:01:10;;;;;;;1.83;0.90;;;14.70;99.90;;;;;;5035458;28;21125;-74
2024/03/27 08:03:35;;;;;;;2.53;0.90;;;14.70;99.90;;;;;;5037595;28;20182;-74
2024/03/27 08:06:02;;;;;;;2.57;0.80;;;14.80;99.90;;;;;;5032254;28;20185;-74
2024/03/27 08:08:28;;;;;;;2.10;0.90;;;14.80;99.90;;;;;;5033443;28;20572;-74
2024/03/27 08:10:55;;;;;;;2.33;1.03;;;14.90;99.90;;;;;;5038211;28;20964;-73
2024/03/27 08:13:20;;;;;;;1.60;0.80;;;15.00;99.90;;;;;;5035037;28;20212;-76
2024/03/27 08:15:46;;;;;;;2.37;1.00;;;15.00;99.90;;;;;;5038768;28;21126;-75
2024/03/27 08:18:12;;;;;;;2.40;0.70;;;15.10;99.90;;;;;;5031047;28;20631;-75
2024/03/27 08:20:39;;;;;;;3.10;0.80;;;15.10;99.90;;;;;;5032103;28;20260;-74
2024/03/27 08:23:04;;;;;;;1.70;0.90;;;15.20;99.90;;;;;;5040158;28;20193;-74
2024/03/27 08:25:33;;;;;;;4.60;1.10;;;15.30;99.90;;;;;;5032222;28;20587;-74
2024/03/27 08:27:59;;;;;;;1.70;0.80;;;15.30;99.90;;;;;;5046894;28;20181;-74
2024/03/27 08:30:25;;;;;;;1.67;0.80;;;15.40;99.90;;;;;;5040100;28;20581;-74
2024/03/27 08:32:50;;;;;;;2.67;0.90;;;15.40;99.90;;;;;;5030941;28;20715;-74
2024/03/27 08:35:17;;;;;;;1.43;0.70;;;15.40;99.90;;;;;;5041937;28;20191;-74
2024/03/27 08:37:43;;;;;;;2.37;0.60;;;15.40;99.90;;;;;;5050029;28;20200;-74
2024/03/27 08:40:10;;;;;;;3.43;0.70;;;15.40;99.90;;;;;;5041989;28;20584;-73
2024/03/27 08:42:35;;;;;;;2.00;0.70;;;15.50;99.90;;;;;;5050282;28;20710;-74
2024/03/27 08:45:01;;;;;;;4.07;1.00;;;15.50;99.90;;;;;;5051315;28;20670;-74
2024/03/27 08:47:28;;;;;;;3.20;1.00;;;15.50;99.90;;;;;;5039380;28;20185;-74
2024/03/27 08:49:54;;;;;;;6.40;1.57;;;15.60;99.90;;;;;;5030507;28;20596;-74
2024/03/27 08:52:20;;;;;;;3.13;1.00;;;15.70;99.90;;;;;;5029905;28;20981;-74
2024/03/27 08:54:45;;;;;;;2.80;0.87;;;15.80;99.90;;;;;;5030064;28;20201;-75
2024/03/27 08:57:11;;;;;;;1.80;0.70;;;15.80;99.90;;;;;;5031249;28;20177;-74
2024/03/27 08:59:37;;;;;;;1.40;0.60;;;15.90;99.90;;;;;;5030181;28;20177;-74
2024/03/27 09:02:02;;;;;;;1.40;0.70;;;15.90;99.90;;;;;;5031069;28;20264;-75
2024/03/27 09:04:28;;;;;;;1.40;0.70;;;15.90;99.90;;;;;;5030069;28;20182;-75
2024/03/27 09:06:54;;;;;;;1.83;0.70;;;16.00;99.90;;;;;;5013133;28;20549;-74
2024/03/27 09:09:19;;;;;;;2.30;0.83;;;16.00;99.90;;;;;;5031150;28;20225;-74
2024/03/27 09:11:45;;;;;;;2.80;0.90;;;16.00;99.90;;;;;;5031059;28;20209;-74
2024/03/27 09:14:11;;;;;;;1.80;0.60;;;16.00;99.90;;;;;;5031007;28;20955;-74
2024/03/27 09:16:36;;;;;;;4.43;0.70;;;16.00;99.90;;;;;;5030938;28;20170;-74
2024/03/27 09:19:02;;;;;;;4.27;0.70;;;16.00;99.90;;;;;;5031109;28;20205;-75
2024/03/27 09:21:28;;;;;;;1.93;0.73;;;16.00;99.90;;;;;;5029477;28;20219;-74
2024/03/27 09:23:54;;;;;;;2.03;0.60;;;16.00;99.90;;;;;;5037712;28;20682;-75
2024/03/27 09:26:19;;;;;;;2.23;0.97;;;16.10;99.90;;;;;;5048474;28;20693;-74
2024/03/27 09:28:45;;;;;;;1.93;0.70;;;16.10;99.90;;;;;;5018969;28;20185;-75
2024/03/27 09:31:11;;;;;;;1.70;0.70;;;16.10;99.90;;;;;;5033560;28;20193;-75
2024/03/27 09:33:36;;;;;;;2.10;0.90;;;16.20;99.90;;;;;;5018822;28;20208;-75
2024/03/27 09:36:02;;;;;;;4.10;0.90;;;16.20;99.90;;;;;;5034348;28;20180;-75
2024/03/27 09:38:28;;;;;;;4.40;0.90;;;16.20;99.90;;;;;;5041089;28;20173;-75
2024/03/27 09:40:57;;;;;;;2.97;0.93;;;16.10;99.90;;;;;;5050824;28;20173;-75
2024/03/27 09:43:24;;;;;;;2.50;0.70;;;16.10;99.90;;;;;;5031534;28;20201;-75
2024/03/27 09:45:52;;;;;;;3.80;1.03;;;16.10;99.90;;;;;;5032684;28;21148;-73
2024/03/27 09:48:18;;;;;;;6.33;1.20;;;16.00;99.90;;;;;;5041711;28;20584;-75
2024/03/27 09:50:44;;;;;;;1.50;0.80;;;16.00;99.90;;;;;;5034917;28;20585;-74
2024/03/27 09:53:13;;;;;;;1.90;0.90;;;16.00;99.90;;;;;;5050367;28;20694;-74
2024/03/27 09:55:39;;;;;;;1.67;0.70;;;15.90;99.90;;;;;;5053108;28;20579;-74
2024/03/27 09:58:12;;;;;;;2.63;0.80;;;15.80;99.90;;;;;;5054731;28;20582;-74
2024/03/27 10:00:39;;;;;;;2.63;0.90;;;15.70;99.90;;;;;;5036560;28;20172;-74
2024/03/27 10:03:05;;;;;;;2.00;0.80;;;15.80;99.90;;;;;;5054314;28;20638;-74
2024/03/27 10:05:35;;;;;;;2.57;0.90;;;15.80;99.90;;;;;;5051264;28;20581;-74
2024/03/27 10:08:06;;;;;;;3.73;0.70;;;15.70;99.90;;;;;;5034108;28;20595;-74
2024/03/27 10:10:32;;;;;;;3.00;0.70;;;15.70;99.90;;;;;;5028840;28;20638;-74
2024/03/27 10:12:58;;;;;;;2.43;0.77;;;15.70;99.90;;;;;;5046925;28;20603;-73
2024/03/27 10:15:25;;;;;;;2.53;0.80;;;15.70;99.90;;;;;;5032967;28;20576;-75
2024/03/27 10:17:51;;;;;;;2.20;0.97;;;15.70;99.90;;;;;;5041497;28;20727;-75
2024/03/27 10:20:17;;;;;;;2.37;0.80;;;15.70;99.90;;;;;;5042371;28;20913;-74
2024/03/27 10:22:43;;;;;;;1.90;0.73;;;15.70;99.90;;;;;;5032896;28;20627;-75
2024/03/27 10:25:09;;;;;;;2.43;0.90;;;15.70;99.90;;;;;;5041056;28;20180;-75
2024/03/27 10:27:36;;;;;;;2.13;0.90;;;15.70;99.90;;;;;;5032949;28;20228;-75
2024/03/27 10:30:03;;;;;;;2.13;0.90;;;15.60;99.90;;;;;;5041339;28;20624;-75
2024/03/27 10:32:29;;;;;;;2.20;0.90;;;15.60;99.90;;;;;;5045361;28;20603;-74
2024/03/27 10:34:55;;;;;;;4.30;3.60;;;15.60;99.90;;;;;;5035920;28;20633;-75
2024/03/27 10:37:21;;;;;;;2.57;1.73;;;15.60;99.90;;;;;;5052202;28;20181;-74
2024/03/27 10:39:51;;;;;;;2.23;1.20;;;15.60;99.90;;;;;;5034407;28;20580;-75
2024/03/27 10:42:25;;;;;;;2.90;1.07;;;15.60;99.90;;;;;;5051506;28;20623;-74
2024/03/27 10:44:55;;;;;;;2.53;1.20;;;15.50;99.90;;;;;;5046435;28;20687;-74
2024/03/27 10:47:23;;;;;;;1.57;1.00;;;15.50;99.90;;;;;;5040943;28;20583;-74
2024/03/27 10:49:50;;;;;;;4.33;1.70;;;15.50;99.90;;;;;;5047714;28;20598;-74
2024/03/27 10:52:18;;;;;;;5.00;1.20;;;15.50;99.90;;;;;;5042771;28;20681;-74
2024/03/27 10:54:47;;;;;;;2.40;1.10;;;15.50;99.90;;;;;;5032435;28;20975;-74
2024/03/27 10:57:18;;;;;;;4.03;1.30;;;15.40;99.90;;;;;;5050138;28;20177;-74
2024/03/27 10:59:49;;;;;;;3.80;1.20;;;15.40;99.90;;;;;;5040357;28;20919;-74
2024/03/27 11:02:18;;;;;;;2.13;1.20;;;15.30;99.90;;;;;;5031967;28;20635;-74
2024/03/27 11:04:56;;;;;;;2.73;1.20;;;15.30;99.90;;;;;;5032283;28;20587;-75
2024/03/27 11:07:23;;;;;;;1.73;0.90;;;15.20;99.90;;;;;;5033444;28;20980;-74
2024/03/27 11:09:53;;;;;;;1.97;1.10;;;15.10;99.90;;;;;;5031941;28;20589;-74
2024/03/27 11:12:21;;;;;;;2.10;1.13;;;15.00;99.90;;;;;;5042635;28;20641;-74
2024/03/27 11:14:48;;;;;;;2.77;2.00;;;15.00;99.90;;;;;;5047987;28;21006;-74
2024/03/27 11:17:15;;;;;;;3.07;1.57;;;14.90;99.90;;;;;;5032754;28;20633;-74
2024/03/27 11:19:41;;;;;;;3.60;1.67;;;14.80;99.90;;;;;;5045516;28;20580;-74
2024/03/27 11:22:14;;;;;;;3.03;1.40;;;14.80;99.90;;;;;;5044786;28;21112;-74
2024/03/27 11:24:43;;;;;;;2.03;1.30;;;14.70;99.90;;;;;;5031970;28;20182;-74
2024/03/27 11:27:10;;;;;;;4.07;1.23;;;14.70;99.90;;;;;;5031643;28;20582;-74
2024/03/27 11:29:36;;;;;;;1.90;1.33;;;14.80;99.90;;;;;;5052963;28;20576;-75
2024/03/27 11:32:05;;;;;;;4.17;2.67;;;14.80;99.90;;;;;;5042453;28;20621;-75
2024/03/27 11:34:31;;;;;;;2.50;1.80;;;14.80;99.90;;;;;;5035376;28;20635;-75
2024/03/27 11:36:58;;;;;;;3.13;1.80;;;14.80;99.90;;;;;;5037778;28;20937;-74
2024/03/27 11:39:25;;;;;;;2.60;1.40;;;14.90;99.90;;;;;;5039829;28;20630;-75
2024/03/27 11:41:52;;;;;;;2.10;1.38;;;15.00;99.90;;;;;;5031686;28;20656;-75
2024/03/27 11:44:18;;;;;;;1.80;1.13;;;15.00;99.90;;;;;;5032821;28;20209;-75
2024/03/27 11:46:44;;;;;;;4.63;1.67;;;15.00;99.90;;;;;;5030707;28;20703;-74
2024/03/27 11:49:12;;;;;;;3.50;1.53;;;15.00;99.90;;;;;;5036669;23;20725;-75
2024/03/27 11:51:38;;;;;;;2.00;1.00;;;15.00;99.90;;;;;;4956405;28;20688;-74
2024/03/27 11:54:04;;;;;;;1.60;0.90;;;15.00;99.90;;;;;;4950106;28;20204;-75
2024/03/27 11:56:35;;;;;;;1.53;0.80;;;15.00;99.90;;;;;;4956843;28;20191;-75
2024/03/27 11:59:03;;;;;;;3.30;1.10;;;15.00;99.90;;;;;;4951087;29;20642;-75
2024/03/27 12:01:32;;;;;;;1.80;0.83;;;15.10;99.90;;;;;;4933899;29;20691;-75
2024/03/27 12:03:58;;;;;;;2.77;1.00;;;15.10;99.90;;;;;;4951065;28;20937;-76
2024/03/27 12:06:25;;;;;;;2.93;1.50;;;15.20;99.90;;;;;;4949749;29;20619;-76
2024/03/27 12:08:51;;;;;;;2.33;1.10;;;15.20;99.90;;;;;;4948827;28;20592;-76
2024/03/27 12:11:21;;;;;;;2.67;1.20;;;15.40;99.90;;;;;;4918341;29;20604;-76
2024/03/27 12:13:48;;;;;;;2.10;1.20;;;15.40;99.90;;;;;;4918160;28;20636;-77
2024/03/27 12:16:15;;;;;;;2.00;0.97;;;15.40;99.90;;;;;;4950547;29;20588;-76
2024/03/27 12:18:45;;;;;;;2.00;1.27;;;15.40;99.90;;;;;;4950539;29;20588;-76
2024/03/27 12:21:16;;;;;;;4.63;3.67;;;15.30;99.90;;;;;;4921621;28;20627;-75
2024/03/27 12:23:43;;;;;;;5.40;4.10;;;15.30;99.90;;;;;;4949641;29;20595;-76
2024/03/27 12:26:21;;;;;;;9.20;3.20;;;15.20;99.90;;;;;;5016929;28;20592;-76
2024/03/27 12:28:50;;;;;;;3.67;1.57;;;15.20;99.90;;;;;;4925831;29;20600;-76
2024/03/27 12:31:23;;;;;;;2.43;1.40;;;15.30;99.90;;;;;;4953970;29;20573;-76
2024/03/27 12:33:49;;;;;;;3.10;1.30;;;15.30;99.90;;;;;;4917979;28;20642;-76
2024/03/27 12:36:15;;;;;;;1.70;0.80;;;15.40;99.90;;;;;;4949304;28;20588;-75
2024/03/27 12:38:42;;;;;;;1.57;0.90;;;15.40;99.90;;;;;;4949730;29;21052;-76
2024/03/27 12:41:07;;;;;;;1.70;1.00;;;15.40;99.90;;;;;;4949575;29;20620;-76
2024/03/27 12:43:33;;;;;;;1.83;1.00;;;15.30;99.90;;;;;;4949439;28;21161;-76
2024/03/27 12:46:00;;;;;;;1.97;1.20;;;15.30;99.90;;;;;;4933492;28;20172;-75